Terminal Aerodrome Forecast
Issued by NWS

Current Version | Previous Version | Text Only | Print | Product List | Glossary On
Versions: 1 2 3 4 5 6 7 8 9 10 11 12 13 14 15 16 17
000
FTUS42 KMLB 210900 AAC
TAFFPR
TAF AMD
KFPR 210922Z 2109/2206 VRB02KT 3SM BR SCT100
      TEMPO 2109/2112 1/2SM FG FEW002
     FM211400 18004KT P6SM FEW025 BKN120
     FM211600 16008KT P6SM SCT035 OVC100
     FM220200 19004KT P6SM SCT040 OVC080=

USA.gov is the U.S. government's official web portal to all federal, state and local government web resources and services.